createdAt,value
2022-10-01T00:00:03.671Z,40.44
2022-10-01T00:01:03.700Z,42.22
2022-10-01T00:02:03.667Z,40.61
2022-10-01T00:03:03.755Z,41.25
2022-10-01T00:04:03.621Z,45.44
2022-10-01T00:05:03.600Z,40.77
2022-10-01T00:06:03.590Z,40.77
2022-10-01T00:07:03.580Z,40.44
2022-10-01T00:08:03.580Z,41.57
2022-10-01T00:09:03.759Z,40.93
2022-10-01T00:10:03.539Z,43.99
2022-10-01T00:11:03.521Z,43.18
2022-10-01T00:12:03.524Z,39.96
2022-10-01T00:13:03.526Z,42.06
2022-10-01T00:14:03.492Z,39.96
2022-10-01T00:15:06.102Z,42.06
2022-10-01T00:16:03.461Z,40.93
2022-10-01T00:17:03.456Z,41.73
2022-10-01T00:18:03.442Z,44.96
2022-10-01T00:19:03.422Z,40.44
2022-10-01T00:20:13.940Z,40.28
2022-10-01T00:21:04.393Z,41.57
2022-10-01T00:22:03.385Z,40.28
2022-10-01T00:23:03.383Z,41.89
2022-10-01T00:24:03.359Z,41.57
2022-10-01T00:25:03.344Z,44.47
2022-10-01T00:26:03.334Z,39.96
2022-10-01T00:27:03.314Z,42.38
2022-10-01T00:28:03.330Z,39.96
2022-10-01T00:29:03.296Z,43.99
2022-10-01T00:30:03.284Z,39.96
2022-10-01T00:31:04.280Z,41.57
2022-10-01T00:32:03.320Z,40.61
2022-10-01T00:33:03.250Z,40.77
2022-10-01T00:34:03.230Z,43.83
2022-10-01T00:35:03.206Z,40.28
2022-10-01T00:36:03.197Z,40.12
2022-10-01T00:37:03.187Z,40.61
2022-10-01T00:38:03.186Z,42.54
2022-10-01T00:39:03.157Z,40.61
2022-10-01T00:40:03.152Z,40.93
2022-10-01T00:41:03.142Z,40.61
2022-10-01T00:42:04.077Z,39.80
2022-10-01T00:43:03.117Z,40.44
2022-10-01T00:44:03.099Z,40.93
2022-10-01T00:45:03.077Z,40.44
2022-10-01T00:46:03.133Z,40.28
2022-10-01T00:47:03.055Z,39.80
2022-10-01T00:48:03.048Z,39.96
2022-10-01T00:49:03.029Z,46.73
2022-10-01T00:50:03.020Z,42.22
2022-10-01T00:51:03.001Z,40.28
2022-10-01T00:52:03.000Z,40.12
2022-10-01T00:53:02.970Z,43.99
2022-10-01T00:54:02.969Z,41.41
2022-10-01T00:55:03.900Z,45.60
2022-10-01T00:56:02.941Z,40.61
2022-10-01T00:57:02.930Z,42.38
2022-10-01T00:58:02.912Z,40.61
2022-10-01T00:59:02.890Z,40.12
2022-10-01T01:00:02.891Z,40.77
2022-10-01T01:01:02.917Z,41.57
2022-10-01T01:02:02.900Z,47.86
2022-10-01T01:03:02.842Z,42.38
2022-10-01T01:04:02.833Z,44.47
2022-10-01T01:05:02.825Z,44.96
2022-10-01T01:06:02.803Z,42.22
2022-10-01T01:07:02.803Z,45.28
2022-10-01T01:08:02.775Z,43.51
2022-10-01T01:09:03.723Z,43.67
2022-10-01T01:10:02.771Z,41.41
2022-10-01T01:11:02.743Z,46.25
2022-10-01T01:12:03.695Z,42.22
2022-10-01T01:13:02.719Z,40.28
2022-10-01T01:14:02.707Z,40.12
2022-10-01T01:15:02.686Z,45.60
2022-10-01T01:16:02.749Z,39.64
2022-10-01T01:17:02.676Z,41.89
2022-10-01T01:18:02.649Z,44.15
2022-10-01T01:19:02.636Z,40.44
2022-10-01T01:20:02.623Z,40.61
2022-10-01T01:21:02.607Z,41.89
2022-10-01T01:22:02.603Z,43.34
2022-10-01T01:23:02.577Z,40.12
2022-10-01T01:24:02.567Z,41.57
2022-10-01T01:25:02.568Z,41.41
2022-10-01T01:26:02.546Z,45.44
2022-10-01T01:27:02.538Z,45.28
2022-10-01T01:28:02.575Z,46.57
2022-10-01T01:29:02.509Z,40.12
2022-10-01T01:30:02.490Z,39.64
2022-10-01T01:31:02.531Z,45.12
2022-10-01T01:32:02.478Z,42.22
2022-10-01T01:33:02.446Z,39.96
2022-10-01T01:34:02.450Z,44.96
2022-10-01T01:35:02.431Z,45.28
2022-10-01T01:36:02.411Z,39.96
2022-10-01T01:37:02.401Z,44.79
2022-10-01T01:38:02.392Z,45.76
2022-10-01T01:39:02.393Z,40.93
2022-10-01T01:40:02.366Z,44.47
2022-10-01T01:41:02.341Z,40.77
2022-10-01T01:42:02.343Z,39.96
2022-10-01T01:43:02.321Z,45.76
2022-10-01T01:44:02.305Z,42.86
2022-10-01T01:45:02.290Z,45.44
2022-10-01T01:46:02.336Z,39.64
2022-10-01T01:47:02.264Z,43.34
2022-10-01T01:48:02.263Z,41.09
2022-10-01T01:49:02.248Z,40.28
2022-10-01T01:50:02.236Z,40.44
2022-10-01T01:51:02.222Z,39.64
2022-10-01T01:52:02.204Z,40.61
2022-10-01T01:53:02.196Z,40.44
2022-10-01T01:54:02.180Z,41.89
2022-10-01T01:55:02.157Z,39.96
2022-10-01T01:56:02.155Z,41.09
2022-10-01T01:57:02.135Z,44.79
2022-10-01T01:58:02.126Z,41.09
2022-10-01T01:59:02.108Z,40.44
2022-10-01T02:00:02.098Z,39.80
2022-10-01T02:01:02.076Z,39.96
2022-10-01T02:02:02.170Z,39.16
2022-10-01T02:03:02.162Z,40.61
2022-10-01T02:04:02.037Z,40.44
2022-10-01T02:05:02.030Z,43.02
2022-10-01T02:06:02.018Z,39.80
2022-10-01T02:07:02.006Z,40.28
2022-10-01T02:08:01.992Z,39.96
2022-10-01T02:09:01.979Z,40.28
2022-10-01T02:10:01.970Z,40.61
2022-10-01T02:11:01.948Z,40.28
2022-10-01T02:12:01.958Z,40.44
2022-10-01T02:13:01.938Z,43.83
2022-10-01T02:14:01.909Z,40.28
2022-10-01T02:15:01.889Z,42.22
2022-10-01T02:16:01.958Z,39.80
2022-10-01T02:17:01.872Z,42.86
2022-10-01T02:18:01.859Z,39.96
2022-10-01T02:19:02.430Z,44.96
2022-10-01T02:20:01.833Z,41.89
2022-10-01T02:21:01.810Z,42.22
2022-10-01T02:22:01.810Z,45.76
2022-10-01T02:23:01.790Z,44.96
2022-10-01T02:24:02.730Z,44.31
2022-10-01T02:25:01.763Z,39.96
2022-10-01T02:26:01.747Z,41.73
2022-10-01T02:27:01.746Z,42.54
2022-10-01T02:28:01.785Z,42.38
2022-10-01T02:29:01.702Z,44.15
2022-10-01T02:30:01.730Z,41.09
2022-10-01T02:31:01.715Z,41.09
2022-10-01T02:32:01.683Z,45.60
2022-10-01T02:33:01.653Z,40.28
2022-10-01T02:34:01.642Z,45.12
2022-10-01T02:35:01.623Z,40.93
2022-10-01T02:36:01.621Z,39.96
2022-10-01T02:37:01.603Z,45.92
2022-10-01T02:38:01.584Z,40.77
2022-10-01T02:39:01.573Z,38.51
2022-10-01T02:40:01.568Z,42.38
2022-10-01T02:41:01.542Z,39.16
2022-10-01T02:42:01.546Z,43.18
2022-10-01T02:43:01.515Z,42.70
2022-10-01T02:44:01.506Z,38.99
2022-10-01T02:45:01.500Z,44.47
2022-10-01T02:46:01.517Z,39.64
2022-10-01T02:47:01.476Z,39.16
2022-10-01T02:48:01.453Z,43.34
2022-10-01T02:49:01.437Z,41.89
2022-10-01T02:50:01.426Z,39.48
2022-10-01T02:51:01.407Z,38.99
2022-10-01T02:52:01.407Z,41.57
2022-10-01T02:53:01.387Z,40.44
2022-10-01T02:54:01.377Z,41.89
2022-10-01T02:55:01.365Z,44.47
2022-10-01T02:56:01.348Z,41.09
2022-10-01T02:57:02.299Z,39.96
2022-10-01T02:58:01.325Z,39.64
2022-10-01T02:59:01.314Z,39.64
2022-10-01T03:00:01.299Z,43.83
2022-10-01T03:01:01.288Z,44.96
2022-10-01T03:02:01.384Z,43.83
2022-10-01T03:03:01.275Z,39.16
2022-10-01T03:04:01.251Z,43.02
2022-10-01T03:05:01.221Z,40.12
2022-10-01T03:06:01.228Z,39.64
2022-10-01T03:07:01.200Z,41.09
2022-10-01T03:08:01.190Z,40.77
2022-10-01T03:09:01.180Z,43.83
2022-10-01T03:10:01.161Z,45.28
2022-10-01T03:11:01.168Z,45.60
2022-10-01T03:12:01.142Z,41.41
2022-10-01T03:13:01.129Z,39.96
2022-10-01T03:14:01.111Z,41.41
2022-10-01T03:15:01.102Z,43.51
2022-10-01T03:16:01.125Z,44.63
2022-10-01T03:17:01.064Z,40.12
2022-10-01T03:18:01.059Z,39.80
2022-10-01T03:19:01.041Z,44.96
2022-10-01T03:20:01.034Z,41.57
2022-10-01T03:21:01.024Z,45.60
2022-10-01T03:22:01.004Z,44.96
2022-10-01T03:23:00.994Z,41.73
2022-10-01T03:24:00.984Z,45.12
2022-10-01T03:25:00.976Z,40.12
2022-10-01T03:26:00.960Z,41.73
2022-10-01T03:27:00.942Z,44.79
2022-10-01T03:28:00.994Z,40.93
2022-10-01T03:29:00.922Z,40.28
2022-10-01T03:30:00.901Z,42.22
2022-10-01T03:31:00.925Z,45.28
2022-10-01T03:32:00.873Z,42.70
2022-10-01T03:33:00.866Z,41.09
2022-10-01T03:34:01.808Z,44.31
2022-10-01T03:35:00.842Z,43.83
2022-10-01T03:36:00.817Z,43.99
2022-10-01T03:37:00.808Z,40.61
2022-10-01T03:38:00.794Z,40.77
2022-10-01T03:39:00.779Z,44.31
2022-10-01T03:40:00.777Z,42.22
2022-10-01T03:41:00.757Z,41.25
2022-10-01T03:42:00.740Z,44.79
2022-10-01T03:43:00.728Z,43.99
2022-10-01T03:44:00.936Z,40.44
2022-10-01T03:45:01.667Z,42.38
2022-10-01T03:46:00.721Z,39.16
2022-10-01T03:47:00.683Z,39.48
2022-10-01T03:48:01.622Z,40.93
2022-10-01T03:49:00.641Z,45.28
2022-10-01T03:50:00.650Z,42.70
2022-10-01T03:51:00.622Z,39.48
2022-10-01T03:52:00.613Z,46.25
2022-10-01T03:53:00.590Z,43.18
2022-10-01T03:54:00.592Z,40.44
2022-10-01T03:55:00.571Z,39.64
2022-10-01T03:56:00.561Z,40.44
2022-10-01T03:57:00.542Z,43.83
2022-10-01T03:58:00.532Z,44.79
2022-10-01T03:59:00.512Z,44.47
2022-10-01T04:00:00.514Z,40.93
2022-10-01T04:01:00.484Z,40.12
2022-10-01T04:02:00.643Z,44.96
2022-10-01T04:03:00.576Z,39.64
2022-10-01T04:04:00.453Z,44.63
2022-10-01T04:05:00.444Z,44.47
2022-10-01T04:06:01.383Z,44.47
2022-10-01T04:07:00.403Z,44.47
2022-10-01T04:08:01.355Z,41.73
2022-10-01T04:09:00.384Z,39.96
2022-10-01T04:10:00.385Z,42.06
2022-10-01T04:11:00.355Z,45.44
2022-10-01T04:12:00.349Z,45.76
2022-10-01T04:13:00.325Z,44.96
2022-10-01T04:14:00.323Z,42.70
2022-10-01T04:15:00.315Z,43.99
2022-10-01T04:16:00.332Z,40.28
2022-10-01T04:17:00.279Z,43.83
2022-10-01T04:18:00.267Z,45.44
2022-10-01T04:19:00.247Z,43.18
2022-10-01T04:20:00.249Z,42.22
2022-10-01T04:21:00.226Z,41.41
2022-10-01T04:22:00.212Z,42.54
2022-10-01T04:23:00.198Z,41.09
2022-10-01T04:24:00.188Z,39.80
2022-10-01T04:25:00.178Z,43.51
2022-10-01T04:26:00.159Z,40.93
2022-10-01T04:27:00.144Z,42.54
2022-10-01T04:28:01.152Z,44.79
2022-10-01T04:29:00.119Z,40.77
2022-10-01T04:30:00.137Z,43.99
2022-10-01T04:31:00.090Z,39.80
2022-10-01T04:32:00.124Z,43.51
2022-10-01T04:33:00.077Z,46.25
2022-10-01T04:34:00.064Z,41.89
2022-10-01T04:35:00.051Z,41.09
2022-10-01T04:36:00.037Z,39.96
2022-10-01T04:37:00.011Z,44.63
2022-10-01T04:38:00.001Z,39.96
2022-10-01T04:39:02.538Z,42.22
2022-10-01T04:39:59.987Z,52.85
2022-10-01T04:40:59.959Z,40.28
2022-10-01T04:41:59.948Z,39.64
2022-10-01T04:42:59.932Z,39.48
2022-10-01T04:44:00.301Z,40.77
2022-10-01T04:44:59.913Z,43.51
2022-10-01T04:45:59.907Z,42.70
2022-10-01T04:46:59.934Z,40.93
2022-10-01T04:47:59.885Z,42.86
2022-10-01T04:48:59.859Z,39.32
2022-10-01T04:49:59.858Z,43.02
2022-10-01T04:50:59.823Z,50.92
2022-10-01T04:51:59.880Z,41.73
2022-10-01T04:52:59.811Z,40.12
2022-10-01T04:53:59.797Z,44.63
2022-10-01T04:54:59.806Z,45.44
2022-10-01T04:55:59.765Z,44.63
2022-10-01T04:56:59.756Z,41.09
2022-10-01T04:57:59.742Z,46.73
2022-10-01T04:58:59.732Z,44.31
2022-10-01T04:59:59.725Z,47.05
2022-10-01T05:01:02.250Z,41.57
2022-10-01T05:01:59.716Z,41.41
2022-10-01T05:02:59.673Z,43.83
2022-10-01T05:03:59.667Z,46.89
2022-10-01T05:04:59.657Z,45.76
2022-10-01T05:05:59.637Z,41.41
2022-10-01T05:06:59.617Z,41.09
2022-10-01T05:07:59.648Z,43.34
2022-10-01T05:08:59.643Z,43.99
2022-10-01T05:09:59.629Z,45.12
2022-10-01T05:10:59.594Z,41.09
2022-10-01T05:11:59.559Z,41.41
2022-10-01T05:13:00.495Z,42.70
2022-10-01T05:13:59.537Z,43.99
2022-10-01T05:14:59.532Z,41.09
2022-10-01T05:15:59.579Z,48.02
2022-10-01T05:16:59.500Z,44.96
2022-10-01T05:17:59.481Z,41.89
2022-10-01T05:18:59.461Z,44.31
2022-10-01T05:19:59.467Z,47.86
2022-10-01T05:20:59.444Z,45.76
2022-10-01T05:21:59.427Z,44.15
2022-10-01T05:22:59.410Z,41.41
2022-10-01T05:23:59.411Z,45.76
2022-10-01T05:24:59.391Z,48.34
2022-10-01T05:25:59.417Z,45.92
2022-10-01T05:26:59.362Z,46.08
2022-10-01T05:27:59.379Z,44.15
2022-10-01T05:28:59.343Z,45.60
2022-10-01T05:29:59.323Z,43.34
2022-10-01T05:30:59.312Z,43.83
2022-10-01T05:31:59.339Z,42.38
2022-10-01T05:32:59.284Z,45.44
2022-10-01T05:33:59.280Z,42.70
2022-10-01T05:34:59.255Z,46.08
2022-10-01T05:35:59.248Z,46.25
2022-10-01T05:36:59.394Z,46.08
2022-10-01T05:37:59.226Z,45.28
2022-10-01T05:38:59.212Z,44.15
2022-10-01T05:39:59.194Z,42.70
2022-10-01T05:40:59.175Z,45.28
2022-10-01T05:42:02.625Z,41.89
2022-10-01T05:43:00.171Z,43.83
2022-10-01T05:43:59.146Z,48.18
2022-10-01T05:44:59.126Z,45.28
2022-10-01T05:45:59.149Z,44.63
2022-10-01T05:46:59.099Z,41.89
2022-10-01T05:47:59.094Z,41.09
2022-10-01T05:48:59.080Z,46.08
2022-10-01T05:49:59.057Z,42.38
2022-10-01T05:50:59.047Z,42.06
2022-10-01T05:51:59.035Z,42.22
2022-10-01T05:52:59.018Z,43.18
2022-10-01T05:53:59.032Z,45.28
2022-10-01T05:54:58.989Z,42.38
2022-10-01T05:55:59.128Z,42.22
2022-10-01T05:56:58.973Z,44.31
2022-10-01T05:57:58.950Z,41.89
2022-10-01T05:58:58.957Z,45.60
2022-10-01T05:59:58.993Z,43.99
2022-10-01T06:00:58.921Z,47.37
2022-10-01T06:01:59.041Z,42.38
2022-10-01T06:02:58.977Z,45.12
2022-10-01T06:03:58.880Z,45.28
2022-10-01T06:04:58.863Z,46.57
2022-10-01T06:05:58.840Z,44.79
2022-10-01T06:06:58.833Z,43.83
2022-10-01T06:07:58.819Z,50.11
2022-10-01T06:08:58.818Z,45.28
2022-10-01T06:09:58.788Z,46.89
2022-10-01T06:10:58.782Z,43.67
2022-10-01T06:11:58.772Z,45.60
2022-10-01T06:12:58.765Z,50.60
2022-10-01T06:13:58.752Z,44.96
2022-10-01T06:14:58.733Z,46.73
2022-10-01T06:15:58.712Z,47.70
2022-10-01T06:16:58.712Z,42.06
2022-10-01T06:17:58.684Z,45.92
2022-10-01T06:18:58.695Z,46.25
2022-10-01T06:19:58.674Z,45.60
2022-10-01T06:20:58.651Z,45.92
2022-10-01T06:21:58.635Z,44.47
2022-10-01T06:22:58.624Z,43.02
2022-10-01T06:23:59.573Z,43.18
2022-10-01T06:24:58.611Z,44.31
2022-10-01T06:25:58.595Z,44.79
2022-10-01T06:26:58.576Z,43.99
2022-10-01T06:27:58.606Z,42.06
2022-10-01T06:28:58.555Z,43.34
2022-10-01T06:29:58.526Z,43.18
2022-10-01T06:30:58.524Z,44.63
2022-10-01T06:31:58.567Z,42.22
2022-10-01T06:32:58.496Z,45.12
2022-10-01T06:33:58.487Z,44.79
2022-10-01T06:34:58.480Z,41.73
2022-10-01T06:35:58.449Z,44.15
2022-10-01T06:36:58.448Z,41.09
2022-10-01T06:37:58.432Z,45.28
2022-10-01T06:38:58.428Z,44.15
2022-10-01T06:39:58.507Z,42.70
2022-10-01T06:40:58.396Z,42.06
2022-10-01T06:41:58.369Z,43.99
2022-10-01T06:42:58.411Z,47.21
2022-10-01T06:43:58.365Z,43.67
2022-10-01T06:44:58.340Z,44.47
2022-10-01T06:45:58.360Z,43.02
2022-10-01T06:46:58.312Z,41.89
2022-10-01T06:47:58.290Z,45.92
2022-10-01T06:48:58.297Z,47.21
2022-10-01T06:49:58.271Z,48.02
2022-10-01T06:50:58.261Z,48.18
2022-10-01T06:51:58.243Z,48.66
2022-10-01T06:52:58.243Z,47.70
2022-10-01T06:53:58.223Z,44.63
2022-10-01T06:54:58.214Z,45.28
2022-10-01T06:55:58.192Z,45.44
2022-10-01T06:56:58.185Z,45.92
2022-10-01T06:57:58.163Z,46.25
2022-10-01T06:58:58.173Z,49.79
2022-10-01T06:59:58.141Z,44.79
2022-10-01T07:00:58.178Z,46.73
2022-10-01T07:01:58.193Z,48.98
2022-10-01T07:02:58.108Z,43.18
2022-10-01T07:03:58.105Z,45.44
2022-10-01T07:04:58.075Z,48.66
2022-10-01T07:05:58.066Z,44.63
2022-10-01T07:06:58.045Z,48.50
2022-10-01T07:07:58.035Z,47.53
2022-10-01T07:08:58.032Z,44.79
2022-10-01T07:09:58.006Z,44.96
2022-10-01T07:10:57.993Z,41.73
2022-10-01T07:11:57.977Z,42.70
2022-10-01T07:12:57.976Z,45.92
2022-10-01T07:13:57.967Z,46.08
2022-10-01T07:14:57.949Z,45.76
2022-10-01T07:15:57.929Z,48.66
2022-10-01T07:16:57.917Z,42.86
2022-10-01T07:17:57.905Z,43.99
2022-10-01T07:18:57.898Z,43.18
2022-10-01T07:19:57.886Z,47.53
2022-10-01T07:20:57.868Z,43.99
2022-10-01T07:21:57.858Z,44.47
2022-10-01T07:22:57.838Z,44.63
2022-10-01T07:23:57.839Z,42.38
2022-10-01T07:24:57.810Z,41.25
2022-10-01T07:25:57.799Z,44.31
2022-10-01T07:26:57.787Z,45.12
2022-10-01T07:27:57.868Z,46.08
2022-10-01T07:28:58.726Z,47.70
2022-10-01T07:29:57.742Z,45.12
2022-10-01T07:30:57.742Z,43.99
2022-10-01T07:31:57.770Z,43.51
2022-10-01T07:32:57.711Z,49.31
2022-10-01T07:33:57.703Z,46.89
2022-10-01T07:34:57.761Z,44.15
2022-10-01T07:35:57.675Z,44.63
2022-10-01T07:36:57.653Z,45.76
2022-10-01T07:37:57.643Z,50.43
2022-10-01T07:38:57.633Z,45.12
2022-10-01T07:39:57.623Z,46.25
2022-10-01T07:40:57.607Z,44.63
2022-10-01T07:41:57.594Z,43.99
2022-10-01T07:42:57.574Z,50.27
2022-10-01T07:43:57.565Z,46.73
2022-10-01T07:44:57.550Z,46.25
2022-10-01T07:45:57.583Z,47.21
2022-10-01T07:46:57.525Z,44.96
2022-10-01T07:47:57.506Z,47.86
2022-10-01T07:48:58.471Z,45.12
2022-10-01T07:49:57.487Z,41.89
2022-10-01T07:50:57.473Z,44.47
2022-10-01T07:51:57.457Z,45.44
2022-10-01T07:52:57.443Z,43.34
2022-10-01T07:53:57.447Z,43.34
2022-10-01T07:54:57.417Z,45.92
2022-10-01T07:55:57.408Z,46.25
2022-10-01T07:56:57.395Z,48.50
2022-10-01T07:57:57.375Z,46.25
2022-10-01T07:58:57.378Z,44.31
2022-10-01T07:59:57.349Z,46.25
2022-10-01T08:00:57.387Z,48.82
2022-10-01T08:01:57.343Z,44.96
2022-10-01T08:02:57.327Z,47.05
2022-10-01T08:03:57.300Z,46.25
2022-10-01T08:04:57.289Z,48.02
2022-10-01T08:05:57.282Z,49.47
2022-10-01T08:06:57.260Z,53.82
2022-10-01T08:07:57.252Z,53.17
2022-10-01T08:08:57.231Z,52.53
2022-10-01T08:09:57.221Z,47.05
2022-10-01T08:10:57.209Z,45.92
2022-10-01T08:11:57.192Z,46.89
2022-10-01T08:12:57.200Z,48.02
2022-10-01T08:13:57.174Z,50.11
2022-10-01T08:14:57.162Z,47.86
2022-10-01T08:15:57.935Z,46.41
2022-10-01T08:16:57.161Z,47.86
2022-10-01T08:17:57.123Z,50.11
2022-10-01T08:18:57.114Z,48.02
2022-10-01T08:19:57.167Z,49.95
2022-10-01T08:20:57.074Z,52.21
2022-10-01T08:21:57.064Z,49.63
2022-10-01T08:22:57.061Z,49.63
2022-10-01T08:23:57.035Z,49.63
2022-10-01T08:24:57.025Z,46.73
2022-10-01T08:25:57.005Z,49.79
2022-10-01T08:26:56.999Z,49.31
2022-10-01T08:27:57.029Z,47.37
2022-10-01T08:28:56.991Z,45.92
2022-10-01T08:29:56.959Z,46.08
2022-10-01T08:30:56.953Z,53.17
2022-10-01T08:31:56.978Z,52.53
2022-10-01T08:32:56.936Z,48.34
2022-10-01T08:33:56.978Z,46.89
2022-10-01T08:34:56.905Z,47.37
2022-10-01T08:35:56.878Z,53.50
2022-10-01T08:36:56.879Z,49.63
2022-10-01T08:37:56.860Z,50.92
2022-10-01T08:38:56.850Z,52.05
2022-10-01T08:39:56.829Z,53.50
2022-10-01T08:40:56.825Z,48.98
2022-10-01T08:41:56.801Z,45.92
2022-10-01T08:42:56.849Z,52.85
2022-10-01T08:43:57.730Z,49.79
2022-10-01T08:44:56.761Z,47.53
2022-10-01T08:45:56.761Z,43.99
2022-10-01T08:46:56.739Z,49.63
2022-10-01T08:47:56.741Z,44.31
2022-10-01T08:48:57.671Z,44.79
2022-10-01T08:49:56.699Z,47.05
2022-10-01T08:50:56.688Z,45.12
2022-10-01T08:51:56.672Z,48.02
2022-10-01T08:52:56.673Z,46.73
2022-10-01T08:53:56.643Z,48.34
2022-10-01T08:54:56.639Z,48.98
2022-10-01T08:55:56.623Z,46.41
2022-10-01T08:56:56.614Z,44.47
2022-10-01T08:57:56.606Z,47.05
2022-10-01T08:58:56.593Z,49.15
2022-10-01T08:59:56.565Z,44.15
2022-10-01T09:00:56.599Z,46.73
2022-10-01T09:01:56.562Z,52.21
2022-10-01T09:02:56.544Z,47.70
2022-10-01T09:03:56.518Z,48.34
2022-10-01T09:05:01.045Z,50.43
2022-10-01T09:05:57.486Z,49.47
2022-10-01T09:06:56.479Z,48.98
2022-10-01T09:07:56.478Z,50.43
2022-10-01T09:08:56.458Z,45.28
2022-10-01T09:09:56.441Z,47.05
2022-10-01T09:10:56.432Z,47.86
2022-10-01T09:11:56.408Z,48.50
2022-10-01T09:12:56.418Z,48.18
2022-10-01T09:13:56.389Z,48.34
2022-10-01T09:14:56.375Z,47.70
2022-10-01T09:15:56.359Z,52.85
2022-10-01T09:16:56.346Z,47.21
2022-10-01T09:17:56.348Z,47.37
2022-10-01T09:18:56.319Z,54.30
2022-10-01T09:19:56.307Z,51.72
2022-10-01T09:20:56.291Z,47.37
2022-10-01T09:21:56.281Z,45.76
2022-10-01T09:22:56.276Z,50.27
2022-10-01T09:23:56.257Z,50.60
2022-10-01T09:24:56.241Z,50.92
2022-10-01T09:25:56.229Z,50.27
2022-10-01T09:26:56.232Z,56.07
2022-10-01T09:27:56.370Z,48.98
2022-10-01T09:28:56.192Z,51.08
2022-10-01T09:29:56.172Z,53.50
2022-10-01T09:30:56.163Z,54.46
2022-10-01T09:31:56.218Z,48.98
2022-10-01T09:32:56.140Z,48.34
2022-10-01T09:33:56.124Z,53.17
2022-10-01T09:34:58.798Z,51.72
2022-10-01T09:35:57.055Z,49.31
2022-10-01T09:36:56.097Z,49.47
2022-10-01T09:37:56.075Z,50.92
2022-10-01T09:38:56.063Z,50.76
2022-10-01T09:39:56.046Z,53.50
2022-10-01T09:40:56.036Z,47.21
2022-10-01T09:41:56.051Z,48.34
2022-10-01T09:42:56.005Z,49.47
2022-10-01T09:43:56.004Z,48.82
2022-10-01T09:44:55.976Z,51.08
2022-10-01T09:45:56.006Z,49.95
2022-10-01T09:46:55.965Z,51.72
2022-10-01T09:47:55.949Z,54.14
2022-10-01T09:48:55.925Z,52.69
2022-10-01T09:49:55.918Z,52.21
2022-10-01T09:50:55.899Z,52.21
2022-10-01T09:51:55.894Z,53.66
2022-10-01T09:52:55.869Z,51.08
2022-10-01T09:53:55.866Z,53.17
2022-10-01T09:54:55.850Z,51.40
2022-10-01T09:55:55.846Z,51.72
2022-10-01T09:56:55.820Z,56.72
2022-10-01T09:57:55.828Z,51.08
2022-10-01T09:58:55.800Z,51.72
2022-10-01T09:59:55.791Z,50.43
2022-10-01T10:00:55.781Z,55.11
2022-10-01T10:01:55.867Z,53.82
2022-10-01T10:02:55.829Z,54.14
2022-10-01T10:03:55.741Z,56.88
2022-10-01T10:04:55.713Z,52.21
2022-10-01T10:05:55.718Z,51.24
2022-10-01T10:06:55.692Z,51.56
2022-10-01T10:07:55.696Z,54.95
2022-10-01T10:08:55.663Z,54.14
2022-10-01T10:09:55.663Z,52.85
2022-10-01T10:10:55.651Z,53.50
2022-10-01T10:11:55.632Z,50.60
2022-10-01T10:12:55.614Z,50.92
2022-10-01T10:13:55.604Z,52.69
2022-10-01T10:14:55.585Z,50.92
2022-10-01T10:15:55.620Z,52.21
2022-10-01T10:16:55.560Z,52.85
2022-10-01T10:17:55.557Z,56.56
2022-10-01T10:18:55.545Z,53.50
2022-10-01T10:19:55.522Z,52.21
2022-10-01T10:20:55.527Z,51.56
2022-10-01T10:21:55.497Z,51.88
2022-10-01T10:22:55.486Z,51.56
2022-10-01T10:23:55.474Z,51.88
2022-10-01T10:24:55.458Z,53.01
2022-10-01T10:25:56.237Z,50.92
2022-10-01T10:26:55.438Z,55.11
2022-10-01T10:27:55.587Z,54.62
2022-10-01T10:28:55.408Z,57.36
2022-10-01T10:29:55.395Z,55.59
2022-10-01T10:30:55.429Z,56.07
2022-10-01T10:31:55.487Z,54.95
2022-10-01T10:32:55.351Z,57.04
2022-10-01T10:33:55.342Z,54.79
2022-10-01T10:34:59.779Z,54.79
2022-10-01T10:35:56.321Z,56.07
2022-10-01T10:36:55.309Z,55.11
2022-10-01T10:37:55.288Z,55.59
2022-10-01T10:38:55.278Z,56.40
2022-10-01T10:39:55.262Z,55.27
2022-10-01T10:40:55.262Z,57.20
2022-10-01T10:41:55.248Z,54.95
2022-10-01T10:42:55.230Z,55.91
2022-10-01T10:43:55.212Z,56.40
2022-10-01T10:44:55.199Z,54.62
2022-10-01T10:45:55.250Z,54.14
2022-10-01T10:46:55.223Z,58.97
2022-10-01T10:47:55.162Z,53.66
2022-10-01T10:48:55.154Z,55.91
2022-10-01T10:49:55.135Z,54.62
2022-10-01T10:50:55.131Z,59.30
2022-10-01T10:51:55.105Z,53.50
2022-10-01T10:52:55.092Z,55.11
2022-10-01T10:53:55.082Z,53.17
2022-10-01T10:54:55.065Z,54.30
2022-10-01T10:55:55.066Z,52.37
2022-10-01T10:56:55.038Z,53.66
2022-10-01T10:57:57.764Z,53.33
2022-10-01T10:58:55.007Z,53.66
2022-10-01T10:59:55.007Z,52.21
2022-10-01T11:00:55.003Z,52.21
2022-10-01T11:01:55.097Z,52.37
2022-10-01T11:02:54.961Z,52.21
2022-10-01T11:03:54.950Z,58.49
2022-10-01T11:04:54.939Z,50.60
2022-10-01T11:05:54.929Z,51.56
2022-10-01T11:06:54.917Z,52.85
2022-10-01T11:07:54.896Z,48.82
2022-10-01T11:08:54.883Z,50.11
2022-10-01T11:09:54.873Z,48.66
2022-10-01T11:10:54.860Z,48.66
2022-10-01T11:11:54.840Z,49.47
2022-10-01T11:12:54.830Z,48.02
2022-10-01T11:13:54.822Z,47.70
2022-10-01T11:14:54.801Z,48.18
2022-10-01T11:15:54.867Z,52.21
2022-10-01T11:16:54.771Z,48.82
2022-10-01T11:17:54.762Z,48.98
2022-10-01T11:18:54.752Z,48.02
2022-10-01T11:19:54.736Z,48.82
2022-10-01T11:20:54.743Z,49.31
2022-10-01T11:21:55.670Z,51.56
2022-10-01T11:22:54.693Z,55.11
2022-10-01T11:23:54.683Z,50.11
2022-10-01T11:24:55.631Z,47.86
2022-10-01T11:25:54.674Z,48.66
2022-10-01T11:26:54.649Z,50.43
2022-10-01T11:27:54.683Z,48.18
2022-10-01T11:28:54.625Z,53.50
2022-10-01T11:29:54.623Z,52.69
2022-10-01T11:30:54.608Z,51.72
2022-10-01T11:31:54.594Z,51.56
2022-10-01T11:32:54.567Z,51.56
2022-10-01T11:33:54.554Z,52.69
2022-10-01T11:34:54.554Z,49.79
2022-10-01T11:35:54.537Z,51.72
2022-10-01T11:36:55.568Z,52.85
2022-10-01T11:37:54.503Z,51.24
2022-10-01T11:38:54.490Z,51.72
2022-10-01T11:39:54.478Z,52.05
2022-10-01T11:40:54.468Z,53.01
2022-10-01T11:41:54.454Z,54.14
2022-10-01T11:42:54.437Z,54.95
2022-10-01T11:43:54.438Z,53.66
2022-10-01T11:44:58.573Z,56.88
2022-10-01T11:45:55.469Z,54.46
2022-10-01T11:46:54.489Z,56.07
2022-10-01T11:47:54.382Z,56.40
2022-10-01T11:48:54.360Z,51.24
2022-10-01T11:49:54.362Z,54.62
2022-10-01T11:50:54.331Z,50.11
2022-10-01T11:51:54.330Z,54.62
2022-10-01T11:52:54.311Z,52.05
2022-10-01T11:53:54.303Z,53.01
2022-10-01T11:54:56.262Z,54.30
2022-10-01T11:55:54.281Z,50.43
2022-10-01T11:56:54.252Z,55.27
2022-10-01T11:57:54.253Z,50.76
2022-10-01T11:58:54.243Z,49.47
2022-10-01T11:59:54.234Z,56.40
2022-10-01T12:00:54.213Z,55.91
2022-10-01T12:01:54.259Z,51.88
2022-10-01T12:02:54.184Z,53.66
2022-10-01T12:03:54.187Z,52.37
2022-10-01T12:04:54.165Z,49.63
2022-10-01T12:05:54.192Z,49.47
2022-10-01T12:06:54.125Z,49.63
2022-10-01T12:07:54.127Z,50.43
2022-10-01T12:08:54.105Z,51.40
2022-10-01T12:09:55.054Z,47.86
2022-10-01T12:10:54.086Z,51.08
2022-10-01T12:11:54.075Z,51.72
2022-10-01T12:12:54.057Z,50.43
2022-10-01T12:13:55.003Z,49.63
2022-10-01T12:14:54.038Z,54.79
2022-10-01T12:15:54.052Z,58.81
2022-10-01T12:16:53.999Z,53.17
2022-10-01T12:17:53.997Z,54.46
2022-10-01T12:18:53.979Z,53.50
2022-10-01T12:19:54.013Z,54.79
2022-10-01T12:20:53.959Z,54.14
2022-10-01T12:21:53.940Z,55.59
2022-10-01T12:22:53.929Z,53.01
2022-10-01T12:23:53.909Z,50.76
2022-10-01T12:24:53.935Z,52.21
2022-10-01T12:25:53.880Z,51.88
2022-10-01T12:26:53.882Z,52.53
2022-10-01T12:27:53.891Z,49.79
2022-10-01T12:28:59.313Z,50.43
2022-10-01T12:29:54.844Z,52.37
2022-10-01T12:30:53.812Z,46.89
2022-10-01T12:31:53.811Z,49.63
2022-10-01T12:32:53.782Z,50.92
2022-10-01T12:33:53.783Z,60.59
2022-10-01T12:34:54.454Z,49.47
2022-10-01T12:35:53.752Z,48.34
2022-10-01T12:36:53.743Z,48.50
2022-10-01T12:37:53.734Z,46.57
2022-10-01T12:38:53.720Z,47.53
2022-10-01T12:39:53.715Z,49.63
2022-10-01T12:40:53.691Z,49.63
2022-10-01T12:41:53.672Z,49.63
2022-10-01T12:42:53.660Z,46.73
2022-10-01T12:43:53.653Z,53.17
2022-10-01T12:44:53.637Z,49.31
2022-10-01T12:45:53.685Z,50.92
2022-10-01T12:46:53.606Z,48.50
2022-10-01T12:47:53.596Z,51.24
2022-10-01T12:48:53.582Z,54.95
2022-10-01T12:49:53.576Z,53.17
2022-10-01T12:50:53.567Z,48.02
2022-10-01T12:51:53.545Z,50.11